createdAt,value
2023-01-30T00:10:01.243Z,51.52
2023-01-30T00:20:10.733Z,51.50
2023-01-30T00:30:20.898Z,51.48
2023-01-30T00:40:31.231Z,51.43
2023-01-30T00:50:41.439Z,51.37
2023-01-30T01:00:50.664Z,51.33
2023-01-30T01:11:01.407Z,51.52
2023-01-30T01:21:11.112Z,51.35
2023-01-30T01:31:21.648Z,51.19
2023-01-30T01:41:31.781Z,51.17
2023-01-30T01:51:41.086Z,51.69
2023-01-30T02:01:51.692Z,51.90
2023-01-30T02:12:02.246Z,52.02
2023-01-30T02:22:13.061Z,52.09
2023-01-30T02:32:22.949Z,52.12
2023-01-30T02:42:32.405Z,52.15
2023-01-30T02:52:42.762Z,52.08
2023-01-30T03:02:53.407Z,52.08
2023-01-30T03:13:02.928Z,52.10
2023-01-30T03:23:13.675Z,52.11
2023-01-30T03:33:23.332Z,52.11
2023-01-30T03:43:32.841Z,52.15
2023-01-30T03:53:43.149Z,52.15
2023-01-30T04:03:53.099Z,52.19
2023-01-30T04:14:03.702Z,52.19
2023-01-30T04:24:12.870Z,52.22
2023-01-30T04:34:22.086Z,52.28
2023-01-30T04:44:32.437Z,52.29
2023-01-30T04:54:42.817Z,52.31
2023-01-30T05:04:52.170Z,52.34
2023-01-30T05:15:01.867Z,52.37
2023-01-30T05:25:11.188Z,52.41
2023-01-30T05:35:20.684Z,52.47
2023-01-30T05:45:30.065Z,52.48
2023-01-30T05:55:39.608Z,52.53
2023-01-30T06:05:49.157Z,52.54
2023-01-30T06:15:58.733Z,52.59
2023-01-30T06:26:09.379Z,52.70
2023-01-30T06:36:19.860Z,52.83
2023-01-30T06:46:30.329Z,53.20
2023-01-30T06:56:39.601Z,53.53
2023-01-30T07:06:49.811Z,53.15
2023-01-30T07:16:59.307Z,53.04
2023-01-30T07:27:08.725Z,52.82
2023-01-30T07:37:17.970Z,52.68
2023-01-30T07:47:28.214Z,52.55
2023-01-30T07:57:38.638Z,52.46
2023-01-30T08:07:47.994Z,52.32
2023-01-30T08:17:57.998Z,53.00
2023-01-30T08:28:07.461Z,53.79
2023-01-30T08:38:16.680Z,55.87
2023-01-30T08:48:28.170Z,56.50
2023-01-30T08:58:37.014Z,56.00
2023-01-30T09:08:45.733Z,54.77
2023-01-30T09:18:54.445Z,53.49
2023-01-30T09:29:04.131Z,53.08
2023-01-30T09:39:12.608Z,52.56
2023-01-30T09:49:22.327Z,53.97
2023-01-30T09:59:32.773Z,54.35
2023-01-30T10:09:42.326Z,54.79
2023-01-30T10:19:50.823Z,54.99
2023-01-30T10:29:59.567Z,55.08
2023-01-30T10:40:10.090Z,54.94
2023-01-30T10:50:19.170Z,54.94
2023-01-30T11:00:28.931Z,54.77
2023-01-30T11:10:38.400Z,54.73
2023-01-30T11:20:48.193Z,54.53
2023-01-30T11:30:56.804Z,54.19
2023-01-30T11:41:05.053Z,53.36
2023-01-30T11:51:13.754Z,53.51
2023-01-30T12:01:24.015Z,53.53
2023-01-30T12:11:33.920Z,53.27
2023-01-30T12:21:42.586Z,53.35
2023-01-30T12:31:53.069Z,53.44
2023-01-30T12:42:02.571Z,53.51
2023-01-30T12:52:13.147Z,53.55
2023-01-30T13:02:25.579Z,53.43
2023-01-30T13:12:36.410Z,53.22
2023-01-30T13:22:46.159Z,53.05
2023-01-30T13:32:55.873Z,52.98
2023-01-30T13:43:06.321Z,52.45
2023-01-30T13:53:16.962Z,54.23
2023-01-30T14:03:26.436Z,54.10
2023-01-30T14:13:35.783Z,53.68
2023-01-30T14:23:44.306Z,53.51
2023-01-30T14:33:52.842Z,53.46
2023-01-30T14:44:01.438Z,53.32
2023-01-30T14:54:09.666Z,53.03
2023-01-30T15:04:18.836Z,52.90
2023-01-30T15:14:27.304Z,52.67
2023-01-30T15:24:35.961Z,52.33
2023-01-30T15:34:44.260Z,52.24
2023-01-30T15:44:53.940Z,52.55
2023-01-30T15:55:03.623Z,53.22
2023-01-30T16:05:13.282Z,53.03
2023-01-30T16:15:22.730Z,52.76
2023-01-30T16:25:31.375Z,53.04
2023-01-30T16:35:40.803Z,52.99
2023-01-30T16:45:49.278Z,53.00
2023-01-30T16:55:57.744Z,52.79
2023-01-30T17:06:07.401Z,52.91
2023-01-30T17:16:16.034Z,53.14
2023-01-30T17:26:25.778Z,52.46
2023-01-30T17:36:34.247Z,52.45
2023-01-30T17:46:42.864Z,52.46
2023-01-30T17:56:52.064Z,52.47
2023-01-30T18:07:01.793Z,52.54
2023-01-30T18:17:10.635Z,53.49
2023-01-30T18:27:20.117Z,52.94
2023-01-30T18:37:28.695Z,52.68
2023-01-30T18:47:38.545Z,53.04
2023-01-30T18:57:48.290Z,52.83
2023-01-30T19:09:20.016Z,53.77
2023-01-30T19:19:29.455Z,53.71
2023-01-30T19:29:38.033Z,56.09
2023-01-30T19:39:46.324Z,56.88
2023-01-30T19:49:56.067Z,57.08
2023-01-30T20:00:05.644Z,56.38
2023-01-30T20:10:14.233Z,56.08
2023-01-30T20:20:23.466Z,55.60
2023-01-30T20:30:31.901Z,55.10
2023-01-30T20:40:40.443Z,53.97
2023-01-30T20:50:50.392Z,53.61
2023-01-30T21:01:00.329Z,53.39
2023-01-30T21:11:08.866Z,53.21
2023-01-30T21:21:18.490Z,52.92
2023-01-30T21:31:29.249Z,53.41
2023-01-30T21:41:39.023Z,53.15
2023-01-30T21:51:47.541Z,53.35
2023-01-30T22:01:56.314Z,54.09
2023-01-30T22:12:04.813Z,54.42
2023-01-30T22:22:14.627Z,54.60
2023-01-30T22:32:23.193Z,53.90
2023-01-30T22:42:33.072Z,53.26
2023-01-30T22:52:42.887Z,52.79
2023-01-30T23:02:53.154Z,52.78
2023-01-30T23:13:02.981Z,52.79
2023-01-30T23:23:12.701Z,52.86
2023-01-30T23:33:22.671Z,53.00
2023-01-30T23:43:32.685Z,53.04
2023-01-30T23:53:41.277Z,53.13
